Tulnici, România

02:30 PM EET on februarie 14, 2016 (GMT +0200)
Bacau | | Change Station
CLOSE
Current Station
Aeroport
Location: Bacau,
Elevation: 607 ft
Nearby Weather Stations

Elev 607 ft 46.52 °N, 26.91 °E | Updated 30 minutes ago

Partly Cloudy
Cer parţial noros
57 °F
Feels Like 57 °F
N
15
Vânt variabil Vânt from SSE

astăzi
High -- | Low -- °F
--% Chance of Precip.
Ieri
High -- | Low -- °F
Precip. -- inch
Presiunea 29.53 inch
Vizibilitatea 6.2 mile
Nori Few 5500 ft
Punctul de rouă 43 °F
Umiditatea 59%
Precipitaţii 0.00 inch
Adâncimea zăpezii Not available.
7:18 AM 5:37 PM
Semilună în creştere, 41% visible
METAR LRBC 141200Z 15013KT 9999 FEW055 14/06 Q1000 RMK R16/09//95
Presiunea 29.53 inch
Vizibilitatea 6.2 mile
Nori Few 5500 ft
Punctul de rouă 43 °F
Umiditatea 59%
Precipitaţii 0.00 inch
Adâncimea zăpezii Not available.
7:18 AM 5:37 PM
Semilună în creştere, 41% visible
METAR LRBC 141200Z 15013KT 9999 FEW055 14/06 Q1000 RMK R16/09//95

10-Day Weather Forecast

Almanac

Astronomie

Feb. 14, 2016 Răsărit Apus
Timpul Actual
Crepusculul Civil
Crepusculul nautic
Răsărit Astronomic
Luna
Durata zilei lumină
Lungimea zilei
Tomorrow will be .
, % of the Moon is Illuminated

Extremele de azi

Country Highs Country Lows

Community

WunderPhotos

Upload Photos

1,892,771 photos uploaded!

WunderBlog® & News

Nearby

Calitatea aerului

  Calitatea aerului Index de calitate a aerului Poluat
Not available.

Adâncimea zapezii

Station Depth Elevation

Earthquake Activity

Oraş Distance Mag. Time & Date
Minimum magnitude displayed is 2.5.

Coastal Water Temperatures

Locul Temperatura

Stations

Nearby Weather Stations

Locaţia staţiei Temp Vânt rece Punctul de rouă Umiditatea Vânt Precip. Elev Actualizare Type